Time;durP1;ratioP1;P1;durP2;ratioP2;P2;SDS_P1;SDS_P2;PMS_P1;PMS_P2;Temp;Humidity;BMP_temperature;BMP_pressure;BME280_temperature;BME280_humidity;BME280_pressure;Samples;Min_cycle;Max_cycle;Signal;HPM_P1;HPM_P2
2022/01/12 00:00:17;;;;;;;8.60;6.23;;;;;;;4.98;66.60;103224.69;4884259;28;96773;-53
2022/01/12 00:02:42;;;;;;;9.57;6.33;;;;;;;5.00;66.33;103220.38;4885439;28;109942;-52
2022/01/12 00:05:08;;;;;;;9.10;6.53;;;;;;;5.01;66.67;103215.72;4884647;28;97577;-52
2022/01/12 00:07:33;;;;;;;10.80;5.17;;;;;;;5.01;66.31;103205.59;4885242;28;97363;-52
2022/01/12 00:09:58;;;;;;;11.40;6.73;;;;;;;5.02;66.71;103209.09;4883828;28;115312;-52
2022/01/12 00:12:26;;;;;;;10.73;6.37;;;;;;;5.01;66.69;103210.25;4885929;28;97609;-52
2022/01/12 00:14:51;;;;;;;8.37;6.00;;;;;;;4.98;66.71;103206.38;4886016;28;97140;-53
2022/01/12 00:17:17;;;;;;;19.87;6.30;;;;;;;4.97;66.84;103204.03;4883504;28;97369;-52
2022/01/12 00:19:42;;;;;;;8.10;5.50;;;;;;;4.95;66.65;103207.16;4886544;28;126409;-52
2022/01/12 00:22:07;;;;;;;8.10;5.40;;;;;;;4.94;66.59;103208.31;4882746;28;124352;-53
2022/01/12 00:25:02;;;;;;;10.60;5.63;;;;;;;4.90;66.30;103204.03;4885550;28;99992;-52
2022/01/12 00:35:31;;;;;;;9.57;6.23;;;;;;;4.87;66.66;103205.59;4884726;28;97272;-52
2022/01/12 00:37:56;;;;;;;9.17;6.43;;;;;;;4.85;66.48;103209.91;4884328;28;125598;-52
2022/01/12 00:40:22;;;;;;;9.63;6.00;;;;;;;4.82;66.69;103210.66;4884329;28;126250;-51
2022/01/12 00:42:47;;;;;;;9.90;5.70;;;;;;;4.78;66.74;103213.41;4883753;28;97182;-52
2022/01/12 00:45:13;;;;;;;11.83;6.57;;;;;;;4.78;66.94;103212.63;4885576;28;106975;-53
2022/01/12 00:47:38;;;;;;;9.43;5.63;;;;;;;4.78;66.81;103201.72;4882945;28;98011;-52
2022/01/12 00:50:04;;;;;;;7.23;5.00;;;;;;;4.82;66.97;103210.66;4883571;28;126597;-53
2022/01/12 00:52:29;;;;;;;8.10;5.20;;;;;;;4.86;66.67;103212.22;4885574;28;97307;-52
2022/01/12 00:54:54;;;;;;;8.63;5.60;;;;;;;4.87;66.52;103223.91;4884933;28;121353;-53
2022/01/12 00:57:19;;;;;;;10.93;6.30;;;;;;;4.86;66.91;103225.88;4885224;28;97578;-51
2022/01/12 00:59:45;;;;;;;10.27;5.43;;;;;;;4.88;66.64;103234.44;4884487;28;127016;-52
2022/01/12 01:02:10;;;;;;;8.70;5.70;;;;;;;4.87;66.80;103248.47;4883248;28;120962;-52
2022/01/12 01:04:35;;;;;;;8.53;5.40;;;;;;;4.87;67.10;103245.75;4883341;28;96963;-52
2022/01/12 01:07:01;;;;;;;9.97;5.97;;;;;;;4.88;66.80;103247.28;4885375;28;97285;-53
2022/01/12 01:09:26;;;;;;;8.93;5.40;;;;;;;4.88;67.08;103245.34;4882700;28;96892;-52
2022/01/12 01:11:52;;;;;;;9.50;5.40;;;;;;;4.88;67.28;103248.06;4882818;28;96871;-52
2022/01/12 01:14:32;;;;;;;8.27;5.70;;;;;;;4.91;66.89;103260.16;4884576;28;100554;-53
2022/01/12 01:27:45;;;;;;;6.97;5.23;;;;;;;5.05;67.08;103255.47;4885145;28;101802;-52
2022/01/12 01:30:11;;;;;;;14.40;5.40;;;;;;;5.08;67.01;103260.16;4888098;28;97294;-53
2022/01/12 01:32:37;;;;;;;8.63;5.20;;;;;;;5.10;67.17;103268.72;4887451;28;96887;-53
2022/01/12 01:35:03;;;;;;;8.70;5.60;;;;;;;5.11;66.96;103266.78;4886422;28;96892;-52
2022/01/12 01:37:28;;;;;;;7.77;5.50;;;;;;;5.12;67.29;103271.06;4887967;28;97872;-52
2022/01/12 01:39:54;;;;;;;9.77;6.37;;;;;;;5.12;67.06;103271.06;4887359;28;112613;-52
2022/01/12 01:42:26;;;;;;;11.17;5.90;;;;;;;5.14;66.71;103269.50;4886573;28;111704;-52
2022/01/12 01:55:32;;;;;;;8.27;4.80;;;;;;;5.20;67.35;103287.03;4888555;28;97092;-53
2022/01/12 01:57:58;;;;;;;10.10;5.87;;;;;;;5.22;67.07;103287.44;4888892;28;97530;-52
2022/01/12 02:00:26;;;;;;;7.50;4.30;;;;;;;5.26;66.99;103288.19;4886202;28;97194;-52
2022/01/12 02:02:56;;;;;;;8.87;4.80;;;;;;;5.28;67.36;103293.28;4886465;28;96941;-52
2022/01/12 02:05:21;;;;;;;6.23;4.90;;;;;;;5.29;66.84;103287.44;4886277;28;98798;-53
2022/01/12 02:07:46;;;;;;;7.10;4.67;;;;;;;5.29;67.11;103287.44;4887012;28;123010;-52
2022/01/12 02:10:12;;;;;;;9.10;5.07;;;;;;;5.32;67.26;103280.41;4887096;28;97108;-52
2022/01/12 02:12:37;;;;;;;7.90;4.97;;;;;;;5.35;66.83;103289.78;4886902;28;100969;-53
2022/01/12 02:15:11;;;;;;;7.43;4.40;;;;;;;5.35;66.78;103285.09;4887129;28;98357;-52
2022/01/12 02:17:41;;;;;;;5.50;4.77;;;;;;;5.36;66.61;103296.78;4885509;28;98042;-52
2022/01/12 02:36:31;;;;;;;6.20;4.77;;;;;;;5.28;67.32;103268.72;4885803;28;97218;-53
2022/01/12 02:41:42;;;;;;;12.13;5.57;;;;;;;5.26;67.17;103273.78;4886523;28;102688;-52
2022/01/12 02:54:42;;;;;;;5.00;4.17;;;;;;;5.22;67.17;103267.56;4884952;28;96890;-52
2022/01/12 02:57:08;;;;;;;8.43;5.07;;;;;;;5.24;67.17;103270.69;4885479;28;96790;-54
2022/01/12 02:59:33;;;;;;;6.50;4.27;;;;;;;5.25;67.25;103278.47;4887732;28;97178;-52
2022/01/12 03:04:25;;;;;;;5.80;4.10;;;;;;;5.30;67.14;103283.53;4885024;28;97005;-52
2022/01/12 03:06:52;;;;;;;11.27;4.40;;;;;;;5.31;67.09;103284.28;4887545;28;97186;-53
2022/01/12 03:09:17;;;;;;;8.60;4.37;;;;;;;5.31;67.32;103274.16;4884791;28;97317;-53
2022/01/12 03:11:42;;;;;;;10.70;4.80;;;;;;;5.32;67.16;103283.13;4885435;28;125302;-53
2022/01/12 03:14:09;;;;;;;6.17;4.37;;;;;;;5.32;67.48;103275.75;4886036;28;97421;-52
2022/01/12 03:16:34;;;;;;;7.97;4.60;;;;;;;5.34;67.54;103272.59;4885852;28;98343;-54
2022/01/12 03:19:01;;;;;;;5.87;4.37;;;;;;;5.36;67.15;103273.00;4886291;28;97123;-53
2022/01/12 03:21:34;;;;;;;8.63;4.87;;;;;;;5.41;67.49;103277.28;4884249;28;96982;-52
2022/01/12 03:24:00;;;;;;;6.57;4.10;;;;;;;5.41;67.42;103285.47;4885781;28;96969;-53
2022/01/12 03:26:29;;;;;;;16.67;5.00;;;;;;;5.46;67.26;103280.38;4884416;28;97131;-52
2022/01/12 03:28:55;;;;;;;4.90;3.60;;;;;;;5.51;67.50;103276.47;4887848;28;102101;-53
2022/01/12 03:31:26;;;;;;;7.37;4.20;;;;;;;5.56;67.41;103276.88;4885471;28;97169;-53
2022/01/12 03:33:57;;;;;;;5.63;3.90;;;;;;;5.60;67.12;103274.13;4886179;28;99603;-52
2022/01/12 03:36:39;;;;;;;6.50;4.70;;;;;;;5.61;67.16;103279.19;4886236;28;96880;-53
2022/01/12 03:39:13;;;;;;;6.30;3.83;;;;;;;5.64;67.49;103291.25;4885401;28;103245;-52
2022/01/12 03:41:41;;;;;;;5.93;4.00;;;;;;;5.65;67.36;103298.31;4886654;28;100225;-52
2022/01/12 03:44:08;;;;;;;8.10;4.30;;;;;;;5.65;67.12;103293.63;4884873;28;99543;-52
2022/01/12 03:46:35;;;;;;;5.97;4.10;;;;;;;5.67;67.34;103291.28;4884360;28;96911;-54
2022/01/12 03:49:00;;;;;;;5.73;4.60;;;;;;;5.69;67.45;103296.34;4883932;28;124975;-52
2022/01/12 03:51:26;;;;;;;7.57;4.53;;;;;;;5.71;67.16;103292.03;4882808;28;126600;-53
2022/01/12 03:53:52;;;;;;;4.70;3.80;;;;;;;5.75;67.25;103287.34;4884912;28;104851;-52
2022/01/12 03:56:17;;;;;;;10.70;4.40;;;;;;;5.78;67.15;103285.78;4885723;28;97375;-52
2022/01/12 03:58:43;;;;;;;5.33;4.33;;;;;;;5.81;67.38;103283.03;4885716;28;98215;-53
2022/01/12 04:01:08;;;;;;;5.37;4.43;;;;;;;5.84;66.94;103285.00;4885929;28;96991;-52
2022/01/12 04:03:39;;;;;;;5.60;3.90;;;;;;;5.87;66.91;103286.97;4885093;28;96923;-52
2022/01/12 04:08:49;;;;;;;6.37;4.00;;;;;;;5.90;67.23;103274.44;4883667;28;97104;-52
2022/01/12 04:11:14;;;;;;;9.27;4.53;;;;;;;5.92;66.79;103297.47;4885025;28;97355;-52
2022/01/12 04:13:42;;;;;;;6.70;3.83;;;;;;;5.96;66.73;103283.81;4880336;28;96907;-52
2022/01/12 04:16:07;;;;;;;7.03;4.67;;;;;;;5.99;66.75;103288.47;4887452;28;96914;-53
2022/01/12 04:18:34;;;;;;;8.33;5.00;;;;;;;5.98;66.99;103295.88;4882594;28;97449;-54
2022/01/12 04:21:03;;;;;;;4.90;3.90;;;;;;;6.01;66.86;103284.16;4885372;28;97028;-53
2022/01/12 04:23:28;;;;;;;4.77;3.97;;;;;;;6.05;66.94;103284.94;4884263;28;97230;-52
2022/01/12 04:25:57;;;;;;;9.47;4.50;;;;;;;6.07;66.68;103281.81;4884274;28;97323;-53
2022/01/12 04:28:23;;;;;;;5.60;4.60;;;;;;;6.10;66.88;103281.00;4885582;28;97014;-52
2022/01/12 04:30:50;;;;;;;7.47;5.43;;;;;;;6.11;66.83;103279.06;4879829;28;98550;-52
2022/01/12 04:33:17;;;;;;;9.37;4.37;;;;;;;6.16;66.73;103286.84;4885414;28;97098;-53
2022/01/12 04:35:47;;;;;;;8.47;5.43;;;;;;;6.19;66.73;103277.84;4884184;28;97302;-51
2022/01/12 04:38:13;;;;;;;6.63;4.80;;;;;;;6.20;66.82;103290.34;4884783;28;96823;-52
2022/01/12 04:40:39;;;;;;;5.97;4.50;;;;;;;6.22;66.75;103293.47;4883993;28;96768;-52
2022/01/12 04:43:07;;;;;;;7.70;5.30;;;;;;;6.24;66.78;103302.03;4885194;28;97161;-53
2022/01/12 04:45:39;;;;;;;10.07;5.30;;;;;;;6.24;66.89;103318.44;4876177;28;97465;-52
2022/01/12 04:50:40;;;;;;;5.70;4.90;;;;;;;6.23;66.68;103333.28;4884223;28;102142;-54
2022/01/12 04:53:06;;;;;;;4.67;4.10;;;;;;;6.18;66.66;103331.72;4882166;28;101264;-52
2022/01/12 04:55:32;;;;;;;7.30;5.40;;;;;;;6.17;66.92;103332.91;4884469;28;97032;-53
2022/01/12 04:57:57;;;;;;;7.60;4.93;;;;;;;6.15;66.91;103321.59;4884220;28;97075;-52
2022/01/12 05:00:25;;;;;;;9.67;6.83;;;;;;;6.17;66.99;103326.66;4883616;28;97233;-53
2022/01/12 05:13:39;;;;;;;9.50;6.90;;;;;;;6.15;67.38;103305.22;4883083;28;97589;-52
2022/01/12 05:16:06;;;;;;;16.00;8.37;;;;;;;6.17;67.09;103302.06;4884307;28;97163;-53
2022/01/12 05:18:33;;;;;;;10.27;7.53;;;;;;;6.19;67.17;103302.44;4882408;28;97443;-54
2022/01/12 05:20:59;;;;;;;12.80;8.33;;;;;;;6.19;67.10;103300.50;4890431;28;97740;-54
2022/01/12 05:23:24;;;;;;;12.93;8.60;;;;;;;6.19;67.21;103303.22;4887324;28;97328;-53
2022/01/12 05:25:51;;;;;;;12.90;9.10;;;;;;;6.19;67.33;103307.91;4890519;28;97878;-53
2022/01/12 05:28:17;;;;;;;11.87;8.03;;;;;;;6.16;67.14;103319.66;4887753;28;97258;-52
2022/01/12 05:30:42;;;;;;;15.67;9.20;;;;;;;6.18;67.13;103325.50;4888682;28;97579;-52
2022/01/12 05:33:08;;;;;;;14.07;9.10;;;;;;;6.20;67.07;103315.72;4886535;28;96935;-53
2022/01/12 05:35:34;;;;;;;12.97;8.90;;;;;;;6.22;67.02;103312.59;4887135;28;97229;-53
2022/01/12 05:38:04;;;;;;;18.17;9.33;;;;;;;6.22;67.22;103320.81;4887216;28;97478;-53
2022/01/12 05:40:30;;;;;;;16.67;9.20;;;;;;;6.21;67.14;103325.47;4886579;28;97348;-52
2022/01/12 05:43:00;;;;;;;14.93;9.73;;;;;;;6.21;67.02;103330.16;4886461;28;97050;-54
2022/01/12 05:45:25;;;;;;;16.57;9.30;;;;;;;6.21;67.51;103327.44;4888814;28;97132;-52
2022/01/12 05:50:17;;;;;;;18.37;9.07;;;;;;;6.20;67.31;103334.09;4888305;28;99455;-52
2022/01/12 05:52:43;;;;;;;15.03;8.53;;;;;;;6.21;67.60;103335.63;4885794;28;97539;-52
2022/01/12 05:55:10;;;;;;;16.73;9.20;;;;;;;6.22;67.42;103329.78;4887525;28;96997;-52
2022/01/12 05:57:36;;;;;;;13.60;8.80;;;;;;;6.21;67.31;103319.22;4887769;28;97488;-53
2022/01/12 06:00:05;;;;;;;15.07;8.77;;;;;;;6.19;67.44;103322.38;4885746;28;97295;-54
2022/01/12 06:02:30;;;;;;;16.40;10.10;;;;;;;6.19;67.46;103325.09;4888753;28;97400;-52
2022/01/12 06:04:55;;;;;;;14.10;9.67;;;;;;;6.20;67.47;103334.09;4886728;28;118274;-52
2022/01/12 06:07:21;;;;;;;12.87;9.00;;;;;;;6.20;67.50;103323.16;4886604;28;115066;-52
2022/01/12 06:09:46;;;;;;;17.73;9.90;;;;;;;6.20;67.19;103332.13;4886528;28;97230;-52
2022/01/12 06:12:12;;;;;;;13.80;9.67;;;;;;;6.19;67.29;103325.09;4886895;28;96746;-52
2022/01/12 06:14:37;;;;;;;17.90;10.30;;;;;;;6.18;67.51;103320.78;4883511;28;97256;-52
2022/01/12 06:17:03;;;;;;;15.53;9.77;;;;;;;6.18;67.30;103329.00;4886580;28;96994;-52
2022/01/12 06:19:28;;;;;;;14.40;9.27;;;;;;;6.19;67.58;103327.84;4887522;28;97237;-53
2022/01/12 06:21:53;;;;;;;15.30;10.23;;;;;;;6.22;67.79;103326.25;4887527;28;97643;-53
2022/01/12 06:24:19;;;;;;;13.13;8.83;;;;;;;6.21;67.33;103339.16;4887254;28;97996;-52
2022/01/12 06:26:46;;;;;;;13.20;9.10;;;;;;;6.20;67.51;103343.06;4886313;28;96833;-52
2022/01/12 06:31:49;;;;;;;16.03;9.97;;;;;;;6.23;67.48;103349.69;4886339;28;97174;-52
2022/01/12 06:34:15;;;;;;;12.93;9.03;;;;;;;6.23;67.24;103355.94;4885537;28;96923;-52
2022/01/12 06:36:40;;;;;;;20.63;10.60;;;;;;;6.22;67.41;103345.41;4887454;28;97332;-52
2022/01/12 06:39:09;;;;;;;16.20;9.70;;;;;;;6.20;67.36;103343.06;4901684;28;97522;-52
2022/01/12 06:41:36;;;;;;;21.13;11.10;;;;;;;6.21;67.83;103344.63;4887416;28;96919;-52
2022/01/12 06:44:01;;;;;;;18.20;10.67;;;;;;;6.22;67.23;103350.88;4884991;28;96992;-52
2022/01/12 06:46:29;;;;;;;18.87;11.10;;;;;;;6.20;67.71;103351.28;4886560;28;96979;-53
2022/01/12 06:48:55;;;;;;;16.87;10.77;;;;;;;6.23;67.45;103366.06;4884316;28;99408;-53
2022/01/12 06:51:20;;;;;;;13.80;9.93;;;;;;;6.23;67.51;103355.94;4887417;28;97038;-52
2022/01/12 06:53:45;;;;;;;18.00;11.30;;;;;;;6.25;67.68;103353.56;4886654;28;99576;-52
2022/01/12 06:56:15;;;;;;;21.20;11.60;;;;;;;6.27;67.49;103364.13;4884857;28;126539;-52
2022/01/12 06:58:41;;;;;;;22.50;11.60;;;;;;;6.22;67.75;103356.34;4886164;28;97220;-51
2022/01/12 07:01:06;;;;;;;18.73;12.07;;;;;;;6.22;67.57;103356.34;4885146;28;97320;-52
2022/01/12 07:03:32;;;;;;;18.17;11.07;;;;;;;6.23;67.68;103363.34;4885739;28;122802;-52
2022/01/12 07:05:57;;;;;;;17.70;11.43;;;;;;;6.24;68.10;103373.91;4887160;28;98577;-52
2022/01/12 07:08:22;;;;;;;18.97;11.70;;;;;;;6.24;67.61;103365.69;4885714;28;100513;-52
2022/01/12 07:10:48;;;;;;;22.10;12.30;;;;;;;6.25;67.54;103378.19;4885903;28;97333;-52
2022/01/12 07:13:13;;;;;;;21.53;12.20;;;;;;;6.26;67.74;103378.97;4885231;28;121770;-52
2022/01/12 07:15:40;;;;;;;18.83;11.50;;;;;;;6.27;67.77;103381.28;4885141;28;97352;-53
2022/01/12 07:18:05;;;;;;;27.57;12.17;;;;;;;6.27;67.58;103386.00;4886494;28;98068;-52
2022/01/12 07:20:31;;;;;;;24.60;13.30;;;;;;;6.29;68.00;103380.91;4887043;28;96820;-52
2022/01/12 07:22:56;;;;;;;24.00;12.97;;;;;;;6.31;67.70;103403.94;4884986;28;97167;-52
2022/01/12 07:25:22;;;;;;;21.80;13.67;;;;;;;6.34;67.93;103408.63;4885357;28;127418;-52
2022/01/12 07:27:47;;;;;;;23.87;15.20;;;;;;;6.35;68.04;103410.19;4886087;28;97732;-52
2022/01/12 07:30:12;;;;;;;29.63;15.37;;;;;;;6.35;67.55;103407.47;4883585;28;122070;-52
2022/01/12 07:32:38;;;;;;;30.53;15.53;;;;;;;6.36;67.87;103414.47;4886246;28;96830;-52
2022/01/12 07:35:05;;;;;;;29.77;15.87;;;;;;;6.38;67.91;103425.00;4885739;28;122099;-52
2022/01/12 07:37:30;;;;;;;32.37;16.53;;;;;;;6.40;67.72;103419.94;4886002;28;102822;-54
2022/01/12 07:39:56;;;;;;;30.70;15.30;;;;;;;6.43;67.72;103430.06;4885512;28;97178;-52
2022/01/12 07:42:21;;;;;;;26.90;13.80;;;;;;;6.43;67.99;103433.59;4885777;28;97492;-52
2022/01/12 07:44:46;;;;;;;30.37;15.47;;;;;;;6.44;67.67;103437.13;4884752;28;97656;-52
2022/01/12 07:47:12;;;;;;;29.07;15.30;;;;;;;6.45;67.89;103444.13;4885465;28;97298;-52
2022/01/12 07:49:37;;;;;;;31.40;13.73;;;;;;;6.46;67.68;103448.44;4884822;28;122946;-52
2022/01/12 07:52:05;;;;;;;29.30;14.93;;;;;;;6.46;67.63;103441.03;4885070;28;97556;-53
2022/01/12 07:54:30;;;;;;;25.70;15.50;;;;;;;6.46;68.02;103449.22;4885987;28;98185;-53
2022/01/12 07:56:55;;;;;;;27.13;14.57;;;;;;;6.49;67.62;103453.09;4882966;28;97316;-52
2022/01/12 07:59:21;;;;;;;28.70;14.83;;;;;;;6.48;67.83;103448.81;4885333;28;121228;-52
2022/01/12 08:01:46;;;;;;;29.93;14.63;;;;;;;6.49;67.99;103439.44;4884081;28;97152;-52
2022/01/12 08:04:11;;;;;;;26.87;14.57;;;;;;;6.49;67.86;103450.38;4884799;28;97483;-54
2022/01/12 08:06:37;;;;;;;29.20;15.07;;;;;;;6.48;68.06;103448.81;4885976;28;124508;-52
2022/01/12 08:09:02;;;;;;;33.07;16.10;;;;;;;6.46;67.79;103446.50;4884627;28;98412;-54
2022/01/12 08:11:29;;;;;;;31.70;15.70;;;;;;;6.49;68.08;103480.44;4885507;28;97068;-52
2022/01/12 08:13:54;;;;;;;27.87;14.53;;;;;;;6.48;67.59;103454.28;4885738;28;97807;-53
2022/01/12 08:16:20;;;;;;;31.57;15.77;;;;;;;6.49;67.94;103451.16;4885604;28;98495;-52
2022/01/12 08:18:45;;;;;;;37.50;16.90;;;;;;;6.49;67.80;103464.81;4885646;28;100175;-56
2022/01/12 08:21:10;;;;;;;29.23;15.93;;;;;;;6.51;68.11;103464.44;4887549;28;97168;-51
2022/01/12 08:23:36;;;;;;;30.50;15.97;;;;;;;6.52;67.97;103471.47;4883083;28;98567;-52
2022/01/12 08:26:01;;;;;;;26.53;15.20;;;;;;;6.53;67.79;103473.03;4885914;28;97174;-53
2022/01/12 08:28:26;;;;;;;36.87;14.90;;;;;;;6.53;67.86;103462.84;4884407;28;97539;-52
2022/01/12 08:30:52;;;;;;;35.03;16.20;;;;;;;6.53;68.12;103460.13;4886937;28;97413;-53
2022/01/12 08:33:17;;;;;;;28.93;14.97;;;;;;;6.52;68.05;103457.78;4884244;28;98252;-52
2022/01/12 08:35:43;;;;;;;37.10;16.37;;;;;;;6.54;67.72;103460.91;4885036;28;97414;-52
2022/01/12 08:38:08;;;;;;;33.47;15.37;;;;;;;6.54;68.21;103452.69;4884173;28;96928;-52
2022/01/12 08:40:37;;;;;;;29.23;15.80;;;;;;;6.57;68.07;103449.19;4882042;28;97102;-54
2022/01/12 08:43:03;;;;;;;39.33;18.30;;;;;;;6.59;68.03;103455.03;4883939;28;97808;-52
2022/01/12 08:45:28;;;;;;;34.13;15.87;;;;;;;6.60;68.20;103456.59;4884295;28;97196;-52
2022/01/12 08:47:54;;;;;;;35.20;16.87;;;;;;;6.64;67.89;103449.94;4886663;28;122320;-52
2022/01/12 08:50:19;;;;;;;32.93;15.20;;;;;;;6.68;67.94;103453.41;4884002;28;121924;-52
2022/01/12 08:52:47;;;;;;;36.40;16.77;;;;;;;6.68;67.85;103449.94;4886164;28;97220;-53
2022/01/12 08:55:14;;;;;;;34.33;17.70;;;;;;;6.70;67.87;103444.84;4885464;28;98005;-52
2022/01/12 08:57:40;;;;;;;31.73;16.50;;;;;;;6.73;67.91;103454.97;4884443;28;96760;-52
2022/01/12 09:00:07;;;;;;;39.07;17.07;;;;;;;6.75;67.95;103460.81;4885717;28;96941;-53
2022/01/12 09:02:32;;;;;;;32.10;15.57;;;;;;;6.76;67.66;103467.88;4882137;28;99188;-52
2022/01/12 09:04:57;;;;;;;31.57;15.40;;;;;;;6.75;68.11;103460.81;4883709;28;126256;-54
2022/01/12 09:07:22;;;;;;;40.57;17.00;;;;;;;6.74;68.07;103462.81;4885035;28;121282;-52
2022/01/12 09:09:48;;;;;;;34.97;16.00;;;;;;;6.74;68.05;103459.28;4884431;28;97216;-53
2022/01/12 09:12:13;;;;;;;30.60;16.27;;;;;;;6.78;68.21;103474.50;4883593;28;98475;-52
2022/01/12 09:14:38;;;;;;;39.60;17.60;;;;;;;6.82;68.17;103474.47;4885333;28;97171;-53
2022/01/12 09:17:12;;;;;;;37.97;18.17;;;;;;;6.85;68.21;103484.66;4884301;28;120935;-52
2022/01/12 09:19:37;;;;;;;42.60;18.57;;;;;;;6.86;68.00;103485.44;4884307;28;97953;-53
2022/01/12 09:22:03;;;;;;;43.10;18.77;;;;;;;6.88;68.21;103500.25;4884003;28;126683;-52
2022/01/12 09:24:28;;;;;;;36.00;16.67;;;;;;;6.91;67.95;103507.69;4883549;28;97827;-53
2022/01/12 09:26:53;;;;;;;34.50;16.43;;;;;;;6.92;67.69;103506.53;4883278;28;124184;-53
2022/01/12 09:29:18;;;;;;;35.10;16.23;;;;;;;6.94;68.00;103517.84;4884406;28;122546;-53
2022/01/12 09:31:44;;;;;;;36.00;15.70;;;;;;;6.96;68.14;103522.91;4882383;28;125408;-53
2022/01/12 09:34:09;;;;;;;32.37;15.70;;;;;;;6.96;67.97;103529.19;4882315;28;126315;-52
2022/01/12 09:36:34;;;;;;;37.03;16.90;;;;;;;6.98;68.27;103526.03;4882284;28;97726;-53
2022/01/12 09:39:00;;;;;;;42.93;18.30;;;;;;;6.99;68.12;103528.38;4884324;28;117850;-53
2022/01/12 09:41:27;;;;;;;39.47;17.37;;;;;;;7.02;67.99;103521.31;4883422;28;100181;-52
2022/01/12 09:43:54;;;;;;;34.57;17.70;;;;;;;7.05;68.39;103526.78;4885678;28;101585;-52
2022/01/12 09:46:22;;;;;;;33.27;18.07;;;;;;;7.05;67.96;103529.53;4884363;28;97392;-52
2022/01/12 09:48:47;;;;;;;32.87;18.40;;;;;;;7.05;68.15;103520.53;4883538;28;97665;-52
2022/01/12 09:51:13;;;;;;;35.77;18.60;;;;;;;7.07;67.86;103523.66;4885195;28;96958;-53
2022/01/12 09:53:39;;;;;;;38.60;17.70;;;;;;;7.08;68.37;103515.03;4885717;28;97290;-53
2022/01/12 09:56:27;;;;;;;31.93;16.17;;;;;;;7.11;68.32;103522.47;4889205;28;96809;-52
2022/01/12 09:58:55;;;;;;;31.60;16.00;;;;;;;7.14;67.71;103523.63;4887322;28;97533;-52
2022/01/12 10:01:47;;;;;;;32.97;14.87;;;;;;;7.11;67.77;103525.19;4884932;28;97456;-52
2022/01/12 10:04:21;;;;;;;31.57;15.93;;;;;;;7.14;67.97;103518.91;4886227;28;100376;-52
2022/01/12 10:07:13;;;;;;;33.30;16.10;;;;;;;7.16;67.97;103516.59;4885381;28;97875;-52
2022/01/12 10:09:41;;;;;;;35.93;16.17;;;;;;;7.18;68.02;103518.91;4886659;28;98047;-54
2022/01/12 10:12:18;;;;;;;28.17;15.57;;;;;;;7.23;68.28;103515.75;4886548;28;100336;-52
2022/01/12 10:14:49;;;;;;;33.20;17.37;;;;;;;7.26;68.02;103509.47;4885738;28;97318;-53
2022/01/12 10:17:16;;;;;;;34.60;16.67;;;;;;;7.29;68.14;103508.69;4887390;28;97380;-52
2022/01/12 10:19:42;;;;;;;34.87;16.07;;;;;;;7.31;68.26;103504.38;4887190;28;96844;-52
2022/01/12 10:22:10;;;;;;;35.20;16.90;;;;;;;7.31;68.07;103501.63;4887960;28;97665;-52
2022/01/12 10:24:40;;;;;;;32.77;15.63;;;;;;;7.35;67.93;103515.28;4883895;28;97255;-52
2022/01/12 10:27:12;;;;;;;37.97;18.30;;;;;;;7.34;67.84;103514.50;4886962;28;98317;-52
2022/01/12 10:29:38;;;;;;;34.37;16.83;;;;;;;7.34;68.16;103516.47;4888311;28;97694;-52
2022/01/12 10:32:05;;;;;;;33.70;16.80;;;;;;;7.39;67.97;103524.28;4884425;28;96845;-52
2022/01/12 10:34:38;;;;;;;37.50;17.27;;;;;;;7.44;68.22;103521.91;4888122;28;99510;-53
2022/01/12 10:37:10;;;;;;;30.27;16.87;;;;;;;7.48;68.12;103532.81;4886206;28;97404;-54
2022/01/12 10:39:40;;;;;;;38.57;16.47;;;;;;;7.52;67.96;103528.88;4884590;28;98260;-52
2022/01/12 10:42:08;;;;;;;33.37;16.20;;;;;;;7.56;68.18;103537.06;4887411;28;97752;-52
2022/01/12 10:44:37;;;;;;;39.27;17.77;;;;;;;7.61;68.10;103536.66;4884401;28;97396;-52
2022/01/12 10:47:06;;;;;;;32.60;16.50;;;;;;;7.64;68.16;103535.09;4886083;28;97383;-52
2022/01/12 10:49:33;;;;;;;40.10;16.10;;;;;;;7.64;68.09;103533.13;4884398;28;96809;-53
2022/01/12 10:51:59;;;;;;;39.77;17.57;;;;;;;7.65;68.04;103544.84;4887848;28;97088;-52
2022/01/12 10:54:24;;;;;;;36.93;16.90;;;;;;;7.65;67.86;103542.91;4885865;28;102038;-52
2022/01/12 10:56:49;;;;;;;38.43;16.47;;;;;;;7.68;68.10;103547.59;4886508;28;97175;-52
2022/01/12 10:59:20;;;;;;;35.47;16.60;;;;;;;7.72;68.12;103539.31;4885648;28;96677;-53
2022/01/12 11:01:45;;;;;;;32.63;15.80;;;;;;;7.73;68.10;103546.38;4881905;28;97418;-53
2022/01/12 11:04:11;;;;;;;35.07;16.87;;;;;;;7.76;67.79;103543.59;4885738;28;97142;-53
2022/01/12 11:06:37;;;;;;;39.27;15.87;;;;;;;7.80;67.74;103551.81;4886540;28;97169;-52
2022/01/12 11:09:04;;;;;;;37.80;16.70;;;;;;;7.83;67.96;103553.75;4886539;28;96973;-54
2022/01/12 11:11:29;;;;;;;33.37;16.30;;;;;;;7.86;68.00;103552.94;4885074;28;97438;-53
2022/01/12 11:13:56;;;;;;;35.90;16.50;;;;;;;7.89;67.66;103557.59;4885242;28;97301;-52
2022/01/12 11:16:23;;;;;;;36.27;16.37;;;;;;;7.91;67.90;103563.47;4886362;28;97322;-54
2022/01/12 11:18:49;;;;;;;36.27;15.53;;;;;;;7.94;67.74;103565.41;4886645;28;96843;-53
2022/01/12 11:21:24;;;;;;;35.50;15.53;;;;;;;7.97;67.88;103564.63;4885383;28;97441;-52
2022/01/12 11:23:51;;;;;;;37.17;17.70;;;;;;;7.97;67.85;103551.66;4884849;28;100396;-53
2022/01/12 11:26:23;;;;;;;40.87;18.10;;;;;;;7.98;67.70;103550.50;4887465;28;97533;-52
2022/01/12 11:28:51;;;;;;;39.97;16.37;;;;;;;7.99;68.00;103557.56;4885373;28;97028;-52
2022/01/12 11:31:26;;;;;;;36.90;17.37;;;;;;;7.98;67.76;103553.25;4885978;28;97169;-52
2022/01/12 11:33:51;;;;;;;40.07;15.60;;;;;;;7.99;67.79;103557.56;4884854;28;97482;-52
2022/01/12 11:36:24;;;;;;;34.07;14.20;;;;;;;8.00;67.70;103544.59;4885247;28;96858;-53
2022/01/12 11:38:58;;;;;;;35.27;15.23;;;;;;;8.00;67.78;103545.38;4886715;28;97424;-52
2022/01/12 11:41:28;;;;;;;40.70;15.47;;;;;;;8.02;67.96;103562.22;4884567;28;97750;-53
2022/01/12 11:44:24;;;;;;;38.73;15.30;;;;;;;8.04;68.24;103559.84;4885739;28;97195;-53
2022/01/12 11:46:54;;;;;;;39.93;17.73;;;;;;;8.04;67.86;103550.84;4887044;28;98133;-52
2022/01/12 11:49:24;;;;;;;36.80;14.50;;;;;;;8.07;68.03;103544.56;4885162;28;97265;-53
2022/01/12 11:51:50;;;;;;;35.30;15.50;;;;;;;8.08;67.83;103543.38;4887191;28;98502;-53
2022/01/12 11:54:21;;;;;;;33.77;14.87;;;;;;;8.07;67.95;103542.59;4884293;28;105306;-52
2022/01/12 11:57:01;;;;;;;45.20;14.50;;;;;;;8.09;67.60;103545.72;4887132;28;97251;-52
2022/01/12 11:59:28;;;;;;;37.90;15.10;;;;;;;8.10;67.95;103541.00;4885658;28;96998;-53
2022/01/12 12:02:08;;;;;;;41.27;15.00;;;;;;;8.15;68.17;103535.06;4885146;28;100709;-52
2022/01/12 12:04:33;;;;;;;28.63;14.70;;;;;;;8.16;67.96;103542.13;4884594;28;102140;-53
2022/01/12 12:07:01;;;;;;;36.30;15.70;;;;;;;8.19;67.82;103536.59;4885586;28;96949;-52
2022/01/12 12:09:35;;;;;;;30.00;13.70;;;;;;;8.20;67.54;103538.16;4884484;28;106986;-52
2022/01/12 12:12:01;;;;;;;41.07;13.70;;;;;;;8.22;68.00;103535.00;4883856;28;102370;-53
2022/01/12 12:14:27;;;;;;;33.73;14.50;;;;;;;8.23;67.82;103537.34;4885028;28;96805;-52
2022/01/12 12:16:53;;;;;;;34.53;12.53;;;;;;;8.24;67.78;103527.94;4887162;28;97181;-52
2022/01/12 12:19:18;;;;;;;32.27;15.00;;;;;;;8.21;67.91;103506.81;4884551;28;97085;-52
2022/01/12 12:21:48;;;;;;;26.90;14.10;;;;;;;8.23;67.84;103501.69;4883243;28;126834;-53
2022/01/12 12:24:15;;;;;;;27.27;14.10;;;;;;;8.26;67.98;103505.63;4885198;28;102001;-53
2022/01/12 12:26:51;;;;;;;32.93;14.33;;;;;;;8.29;67.86;103505.59;4885508;28;96698;-53
2022/01/12 12:29:18;;;;;;;31.60;13.30;;;;;;;8.32;67.89;103508.72;4885394;28;97377;-52
2022/01/12 12:31:48;;;;;;;26.10;12.97;;;;;;;8.34;67.95;103515.34;4884432;28;97146;-52
2022/01/12 12:34:14;;;;;;;33.80;14.30;;;;;;;8.35;67.83;103524.34;4884405;28;97603;-53
2022/01/12 12:36:39;;;;;;;29.87;13.93;;;;;;;8.36;67.83;103520.44;4887113;28;97214;-53
2022/01/12 12:39:11;;;;;;;30.73;13.97;;;;;;;8.40;67.90;103515.69;4886359;28;97120;-52
2022/01/12 12:41:38;;;;;;;28.70;13.50;;;;;;;8.42;67.89;103510.56;4883565;28;97669;-53
2022/01/12 12:44:04;;;;;;;30.03;14.63;;;;;;;8.43;67.89;103514.88;4884983;28;97360;-52